Time;durP1;ratioP1;P1;durP2;ratioP2;P2;SDS_P1;SDS_P2;PMS_P1;PMS_P2;Temp;Humidity;BMP_temperature;BMP_pressure;BME280_temperature;BME280_humidity;BME280_pressure;Samples;Min_cycle;Max_cycle;Signal;HPM_P1;HPM_P2
2021/12/27 00:02:52;;;;;;;31.07;12.37;;;;;;;;;;6093937;23;20181;-92
2021/12/27 00:05:59;;;;;;;36.63;12.60;;;;;;;;;;6096254;23;20214;-89
2021/12/27 00:09:04;;;;;;;36.20;11.60;;;;;;;;;;6095583;23;20198;-92
2021/12/27 00:12:10;;;;;;;33.87;13.37;;;;;;;;;;6095302;23;20204;-90
2021/12/27 00:15:15;;;;;;;30.57;11.93;;;;;;;;;;6095622;23;20613;-91
2021/12/27 00:18:20;;;;;;;28.80;11.17;;;;;;;;;;6096689;23;20175;-91
2021/12/27 00:21:27;;;;;;;36.53;12.87;;;;;;;;;;6094313;23;20170;-91
2021/12/27 00:24:32;;;;;;;32.00;12.57;;;;;;;;;;6095921;23;20177;-92
2021/12/27 00:27:38;;;;;;;40.47;13.70;;;;;;;;;;6096020;23;20195;-92
2021/12/27 00:30:43;;;;;;;29.90;12.07;;;;;;;;;;6094028;23;20221;-91
2021/12/27 00:33:48;;;;;;;29.80;12.33;;;;;;;;;;6095034;23;20198;-90
2021/12/27 00:36:55;;;;;;;34.67;12.70;;;;;;;;;;6094956;23;20207;-90
2021/12/27 00:40:00;;;;;;;29.83;11.87;;;;;;;;;;6096141;23;20177;-90
2021/12/27 00:43:06;;;;;;;35.33;12.57;;;;;;;;;;6094151;23;20247;-91
2021/12/27 00:46:11;;;;;;;36.00;13.53;;;;;;;;;;6095551;23;20165;-91
2021/12/27 00:49:16;;;;;;;41.77;13.60;;;;;;;;;;6094657;23;20202;-89
2021/12/27 00:52:23;;;;;;;29.00;12.13;;;;;;;;;;6092876;23;20194;-91
2021/12/27 00:55:28;;;;;;;29.93;12.70;;;;;;;;;;6092396;23;20554;-91
2021/12/27 00:58:34;;;;;;;32.93;13.33;;;;;;;;;;6093875;23;20169;-90
2021/12/27 01:01:39;;;;;;;29.50;12.50;;;;;;;;;;6094376;23;20173;-92
2021/12/27 01:04:44;;;;;;;30.67;12.60;;;;;;;;;;6095952;23;20170;-90
2021/12/27 01:07:51;;;;;;;31.17;12.43;;;;;;;;;;6097358;23;20162;-92
2021/12/27 01:11:22;;;;;;;39.33;12.53;;;;;;;;;;6095723;23;20165;-91
2021/12/27 01:14:39;;;;;;;35.70;13.73;;;;;;;;;;6097535;23;20165;-91
2021/12/27 01:17:46;;;;;;;31.10;12.43;;;;;;;;;;6094470;23;20190;-90
2021/12/27 01:20:51;;;;;;;35.23;14.10;;;;;;;;;;6092887;23;20194;-92
2021/12/27 01:23:58;;;;;;;34.30;14.30;;;;;;;;;;6093012;23;20175;-91
2021/12/27 01:27:03;;;;;;;39.27;14.27;;;;;;;;;;6092853;23;20206;-91
2021/12/27 01:30:09;;;;;;;40.83;15.23;;;;;;;;;;6094151;23;20169;-88
2021/12/27 01:33:15;;;;;;;37.13;14.13;;;;;;;;;;6093616;23;20269;-92
2021/12/27 01:36:20;;;;;;;39.57;14.97;;;;;;;;;;6093714;23;20214;-91
2021/12/27 01:39:27;;;;;;;41.47;15.53;;;;;;;;;;6094918;23;20231;-90
2021/12/27 01:42:33;;;;;;;40.40;15.93;;;;;;;;;;6095444;23;20166;-92
2021/12/27 01:45:38;;;;;;;41.23;15.57;;;;;;;;;;6094364;23;20257;-90
2021/12/27 01:48:47;;;;;;;41.17;16.23;;;;;;;;;;6093296;23;20170;-90
2021/12/27 01:51:52;;;;;;;40.10;15.40;;;;;;;;;;6093076;23;20171;-90
2021/12/27 01:54:59;;;;;;;47.50;18.53;;;;;;;;;;6095016;23;20165;-90
2021/12/27 01:58:05;;;;;;;42.57;16.70;;;;;;;;;;6094522;23;20173;-92
2021/12/27 02:01:11;;;;;;;46.57;16.43;;;;;;;;;;6094079;23;20169;-90
2021/12/27 02:04:17;;;;;;;48.40;17.37;;;;;;;;;;6095385;23;20199;-92
2021/12/27 02:07:22;;;;;;;46.83;17.33;;;;;;;;;;6094042;23;20182;-91
2021/12/27 02:10:29;;;;;;;53.03;18.70;;;;;;;;;;6092336;23;20173;-92
2021/12/27 02:13:36;;;;;;;49.37;17.80;;;;;;;;;;6092324;23;20204;-90
2021/12/27 02:16:43;;;;;;;51.93;18.07;;;;;;;;;;6093710;23;20249;-92
2021/12/27 02:19:50;;;;;;;50.87;17.70;;;;;;;;;;6093646;23;20191;-89
2021/12/27 02:22:59;;;;;;;42.77;17.30;;;;;;;;;;6094938;23;20556;-90
2021/12/27 02:26:05;;;;;;;46.97;17.90;;;;;;;;;;6093610;23;20170;-91
2021/12/27 02:29:10;;;;;;;51.80;18.53;;;;;;;;;;6092814;23;20185;-91
2021/12/27 02:32:15;;;;;;;47.10;18.47;;;;;;;;;;6091768;23;20170;-91
2021/12/27 02:35:23;;;;;;;49.37;19.33;;;;;;;;;;6092307;23;20274;-91
2021/12/27 02:38:28;;;;;;;48.80;18.93;;;;;;;;;;6094988;23;20665;-90
2021/12/27 02:41:33;;;;;;;47.23;17.20;;;;;;;;;;6093473;23;20609;-90
2021/12/27 02:44:39;;;;;;;52.13;18.60;;;;;;;;;;6092742;23;20166;-90
2021/12/27 02:47:44;;;;;;;48.33;19.00;;;;;;;;;;6093963;23;20173;-89
2021/12/27 02:50:51;;;;;;;43.20;17.50;;;;;;;;;;6094537;23;20254;-91
2021/12/27 02:53:58;;;;;;;51.40;17.33;;;;;;;;;;6094826;23;20206;-90
2021/12/27 02:57:04;;;;;;;48.13;17.67;;;;;;;;;;6095971;23;20242;-90
2021/12/27 03:00:15;;;;;;;50.60;18.23;;;;;;;;;;6095613;23;20169;-90
2021/12/27 03:03:20;;;;;;;48.13;19.30;;;;;;;;;;6094863;23;20169;-92
2021/12/27 03:06:27;;;;;;;49.40;18.73;;;;;;;;;;6098138;23;20162;-91
2021/12/27 03:09:32;;;;;;;52.10;18.57;;;;;;;;;;6098336;23;20169;-89
2021/12/27 03:12:38;;;;;;;44.67;17.20;;;;;;;;;;6098214;23;20280;-90
2021/12/27 03:15:44;;;;;;;47.83;16.90;;;;;;;;;;6097470;23;20179;-91
2021/12/27 03:18:51;;;;;;;46.57;18.17;;;;;;;;;;6097924;23;20177;-91
2021/12/27 03:21:58;;;;;;;49.83;17.17;;;;;;;;;;6096866;23;20177;-93
2021/12/27 03:25:02;;;;;;;47.70;17.23;;;;;;;;;;6096682;23;20215;-93
2021/12/27 03:28:08;;;;;;;44.63;17.00;;;;;;;;;;6096617;23;20172;-91
2021/12/27 03:31:15;;;;;;;42.80;16.40;;;;;;;;;;6100076;23;20174;-92
2021/12/27 03:34:20;;;;;;;46.03;16.37;;;;;;;;;;6097589;23;20198;-91
2021/12/27 03:37:27;;;;;;;43.17;17.30;;;;;;;;;;6096690;23;20178;-90
2021/12/27 03:40:37;;;;;;;41.90;17.47;;;;;;;;;;6096855;23;20174;-92
2021/12/27 03:43:42;;;;;;;52.60;18.13;;;;;;;;;;6096359;23;20177;-90
2021/12/27 03:46:48;;;;;;;49.50;17.87;;;;;;;;;;6095013;23;20303;-90
2021/12/27 03:49:53;;;;;;;50.03;17.47;;;;;;;;;;6096178;23;20218;-91
2021/12/27 03:53:00;;;;;;;47.77;17.90;;;;;;;;;;6097129;23;20193;-91
2021/12/27 03:56:08;;;;;;;46.00;18.60;;;;;;;;;;6097534;23;20251;-92
2021/12/27 03:59:22;;;;;;;47.13;18.93;;;;;;;;;;6095720;23;20259;-91
2021/12/27 04:02:28;;;;;;;49.67;19.73;;;;;;;;;;6097091;23;20154;-90
2021/12/27 04:05:33;;;;;;;46.30;18.50;;;;;;;;;;6095299;23;20166;-91
2021/12/27 04:08:40;;;;;;;50.37;19.20;;;;;;;;;;6094481;23;20186;-92
2021/12/27 04:11:45;;;;;;;49.07;18.60;;;;;;;;;;6094704;23;20161;-91
2021/12/27 04:14:50;;;;;;;49.93;18.90;;;;;;;;;;6095238;23;20201;-90
2021/12/27 04:17:55;;;;;;;51.13;18.50;;;;;;;;;;6096017;23;20217;-91
2021/12/27 04:21:00;;;;;;;47.50;18.30;;;;;;;;;;6096307;23;20166;-93
2021/12/27 04:24:07;;;;;;;47.80;18.13;;;;;;;;;;6097031;23;20166;-90
2021/12/27 04:27:13;;;;;;;44.80;18.03;;;;;;;;;;6094604;23;20191;-91
2021/12/27 04:30:18;;;;;;;45.50;18.63;;;;;;;;;;6094795;23;20222;-89
2021/12/27 04:33:24;;;;;;;49.60;18.50;;;;;;;;;;6094072;23;20254;-89
2021/12/27 04:36:29;;;;;;;51.40;17.97;;;;;;;;;;6095606;23;20231;-92
2021/12/27 04:39:35;;;;;;;43.90;18.17;;;;;;;;;;6096826;23;20169;-90
2021/12/27 04:42:42;;;;;;;49.60;18.53;;;;;;;;;;6095706;23;20174;-89
2021/12/27 04:45:51;;;;;;;48.53;17.27;;;;;;;;;;6096273;23;20641;-91
2021/12/27 04:48:56;;;;;;;56.73;18.23;;;;;;;;;;6096010;23;20210;-91
2021/12/27 04:52:01;;;;;;;46.93;17.07;;;;;;;;;;6097153;23;20173;-90
2021/12/27 04:55:07;;;;;;;48.53;17.50;;;;;;;;;;6096797;23;20693;-89
2021/12/27 04:58:15;;;;;;;51.73;18.27;;;;;;;;;;6096948;23;20246;-89
2021/12/27 05:01:30;;;;;;;44.63;17.30;;;;;;;;;;6094644;23;20258;-91
2021/12/27 05:04:36;;;;;;;48.80;18.27;;;;;;;;;;6096587;23;20253;-91
2021/12/27 05:07:42;;;;;;;44.73;17.77;;;;;;;;;;6095476;23;20170;-88
2021/12/27 05:10:49;;;;;;;42.67;17.40;;;;;;;;;;6096217;23;20281;-90
2021/12/27 05:13:54;;;;;;;49.20;18.90;;;;;;;;;;6095407;23;20252;-89
2021/12/27 05:17:00;;;;;;;46.10;17.23;;;;;;;;;;6094126;23;20649;-90
2021/12/27 05:20:08;;;;;;;47.33;18.23;;;;;;;;;;6094647;23;20154;-93
2021/12/27 05:23:13;;;;;;;53.07;18.97;;;;;;;;;;6094247;23;20166;-92
2021/12/27 05:26:20;;;;;;;42.83;17.93;;;;;;;;;;6095677;23;20626;-91
2021/12/27 05:29:25;;;;;;;48.13;18.60;;;;;;;;;;6095731;23;20189;-92
2021/12/27 05:32:30;;;;;;;48.53;18.50;;;;;;;;;;6094415;23;20174;-90
2021/12/27 05:35:36;;;;;;;49.20;18.33;;;;;;;;;;6096316;23;20170;-91
2021/12/27 05:38:41;;;;;;;46.83;19.00;;;;;;;;;;6095104;23;20169;-93
2021/12/27 05:41:48;;;;;;;47.33;18.57;;;;;;;;;;6096239;23;20169;-92
2021/12/27 05:44:53;;;;;;;54.13;19.53;;;;;;;;;;6095704;23;20201;-91
2021/12/27 05:47:57;;;;;;;45.90;18.37;;;;;;;;;;6093617;23;20598;-92
2021/12/27 05:51:03;;;;;;;44.93;17.97;;;;;;;;;;6097684;23;20222;-91
2021/12/27 05:54:08;;;;;;;48.47;19.40;;;;;;;;;;6094909;23;20339;-88
2021/12/27 05:57:14;;;;;;;52.30;19.37;;;;;;;;;;6096318;23;20173;-91
2021/12/27 06:00:20;;;;;;;52.60;19.90;;;;;;;;;;6095652;23;20499;-91
2021/12/27 06:03:27;;;;;;;49.57;19.47;;;;;;;;;;6095510;23;20199;-90
2021/12/27 06:06:33;;;;;;;54.80;20.37;;;;;;;;;;6097376;23;20207;-92
2021/12/27 06:09:38;;;;;;;51.23;20.20;;;;;;;;;;6096451;23;20174;-92
2021/12/27 06:12:46;;;;;;;52.37;19.87;;;;;;;;;;6095161;23;20203;-90
2021/12/27 06:15:51;;;;;;;57.53;20.60;;;;;;;;;;6097044;23;20214;-93
2021/12/27 06:18:56;;;;;;;60.17;20.83;;;;;;;;;;6096938;23;20170;-91
2021/12/27 06:22:05;;;;;;;48.07;19.00;;;;;;;;;;6097865;23;20237;-93
2021/12/27 06:25:10;;;;;;;57.97;20.70;;;;;;;;;;6097817;23;20627;-91
2021/12/27 06:28:17;;;;;;;55.70;19.27;;;;;;;;;;6098865;23;20193;-91
2021/12/27 06:31:23;;;;;;;57.53;19.70;;;;;;;;;;6096998;23;20165;-92
2021/12/27 06:34:28;;;;;;;59.63;20.23;;;;;;;;;;6095972;23;20201;-92
2021/12/27 06:37:33;;;;;;;45.33;18.90;;;;;;;;;;6094244;23;20177;-92
2021/12/27 06:40:38;;;;;;;55.93;20.37;;;;;;;;;;6095388;23;20174;-92
2021/12/27 06:43:45;;;;;;;61.13;20.40;;;;;;;;;;6095389;23;20215;-92
2021/12/27 06:46:50;;;;;;;61.93;21.40;;;;;;;;;;6096017;23;20170;-92
2021/12/27 06:49:55;;;;;;;62.23;21.73;;;;;;;;;;6097025;23;20154;-93
2021/12/27 06:53:00;;;;;;;59.43;20.87;;;;;;;;;;6096507;23;20186;-92
2021/12/27 06:56:06;;;;;;;61.43;21.33;;;;;;;;;;6096369;23;20173;-92
2021/12/27 06:59:13;;;;;;;65.10;21.80;;;;;;;;;;6095674;23;20174;-91
2021/12/27 07:02:18;;;;;;;71.03;22.33;;;;;;;;;;6095861;23;20225;-92
2021/12/27 07:05:23;;;;;;;74.37;22.70;;;;;;;;;;6097247;23;20182;-90
2021/12/27 07:08:28;;;;;;;76.10;24.13;;;;;;;;;;6097237;23;20177;-90
2021/12/27 07:11:34;;;;;;;73.07;24.10;;;;;;;;;;6095256;23;20174;-90
2021/12/27 07:14:40;;;;;;;78.20;23.83;;;;;;;;;;6095036;23;20197;-89
2021/12/27 07:17:45;;;;;;;71.63;22.50;;;;;;;;;;6094109;23;20170;-90
2021/12/27 07:20:52;;;;;;;68.80;23.50;;;;;;;;;;6094578;23;20674;-90
2021/12/27 07:23:57;;;;;;;79.93;24.67;;;;;;;;;;6094595;23;20187;-90
2021/12/27 07:27:03;;;;;;;75.07;22.67;;;;;;;;;;6093219;23;20181;-91
2021/12/27 07:30:12;;;;;;;71.73;22.83;;;;;;;;;;6095757;23;20178;-92
2021/12/27 07:33:17;;;;;;;75.60;24.13;;;;;;;;;;6095181;23;20181;-91
2021/12/27 07:36:22;;;;;;;74.67;22.37;;;;;;;;;;6095148;23;20169;-91
2021/12/27 07:39:28;;;;;;;70.30;23.57;;;;;;;;;;6094383;23;20182;-89
2021/12/27 07:42:35;;;;;;;63.33;22.47;;;;;;;;;;6096791;23;20625;-89
2021/12/27 07:45:42;;;;;;;77.63;22.60;;;;;;;;;;6096014;23;20177;-92
2021/12/27 07:48:47;;;;;;;74.00;22.50;;;;;;;;;;6096080;23;20170;-90
2021/12/27 07:51:52;;;;;;;73.33;23.13;;;;;;;;;;6097632;23;20166;-90
2021/12/27 07:54:58;;;;;;;73.20;24.53;;;;;;;;;;6096403;23;20324;-90
2021/12/27 07:58:03;;;;;;;72.80;22.77;;;;;;;;;;6096556;23;20521;-89
2021/12/27 08:01:10;;;;;;;74.10;23.40;;;;;;;;;;6094213;23;20232;-91
2021/12/27 08:04:15;;;;;;;75.90;23.27;;;;;;;;;;6099004;23;20177;-89
2021/12/27 08:07:20;;;;;;;65.00;21.87;;;;;;;;;;6098214;23;20284;-91
2021/12/27 08:10:26;;;;;;;79.47;22.87;;;;;;;;;;6096392;23;20194;-90
2021/12/27 08:13:31;;;;;;;65.73;22.93;;;;;;;;;;6098023;23;20173;-91
2021/12/27 08:16:38;;;;;;;76.10;24.33;;;;;;;;;;6096976;23;20162;-90
2021/12/27 08:19:45;;;;;;;67.37;23.37;;;;;;;;;;6098621;23;20174;-91
2021/12/27 08:22:50;;;;;;;71.73;23.17;;;;;;;;;;6096899;23;20187;-92
2021/12/27 08:25:56;;;;;;;76.10;25.30;;;;;;;;;;6096481;23;20173;-92
2021/12/27 08:29:04;;;;;;;63.47;22.77;;;;;;;;;;6096578;23;20218;-91
2021/12/27 08:32:11;;;;;;;73.80;23.80;;;;;;;;;;6094719;23;20261;-91
2021/12/27 08:35:17;;;;;;;71.43;23.33;;;;;;;;;;6096948;23;20210;-91
2021/12/27 08:38:22;;;;;;;70.37;23.77;;;;;;;;;;6094891;23;20178;-91
2021/12/27 08:41:29;;;;;;;73.77;23.13;;;;;;;;;;6095716;23;20177;-91
2021/12/27 08:44:34;;;;;;;75.00;23.57;;;;;;;;;;6096079;23;20174;-92
2021/12/27 08:47:41;;;;;;;63.60;22.47;;;;;;;;;;6096695;23;20658;-91
2021/12/27 08:50:47;;;;;;;70.37;22.47;;;;;;;;;;6097767;23;20186;-92
2021/12/27 08:53:52;;;;;;;61.07;20.87;;;;;;;;;;6095894;23;20277;-91
2021/12/27 08:56:58;;;;;;;66.43;22.97;;;;;;;;;;6096125;23;20346;-93
2021/12/27 09:00:05;;;;;;;67.10;22.30;;;;;;;;;;6096206;23;20235;-92
2021/12/27 09:03:47;;;;;;;62.67;22.80;;;;;;;;;;6096655;23;20174;-91
2021/12/27 09:06:54;;;;;;;67.10;21.97;;;;;;;;;;6096445;23;20182;-91
2021/12/27 09:09:59;;;;;;;70.70;23.23;;;;;;;;;;6095394;23;20174;-90
2021/12/27 09:13:05;;;;;;;71.63;21.87;;;;;;;;;;6093935;23;20280;-92
2021/12/27 09:16:13;;;;;;;72.83;22.80;;;;;;;;;;6096052;23;20226;-92
2021/12/27 09:19:18;;;;;;;63.80;21.83;;;;;;;;;;6094274;23;20198;-91
2021/12/27 09:22:24;;;;;;;111.80;42.23;;;;;;;;;;6094207;23;20169;-91
2021/12/27 09:25:30;;;;;;;74.23;26.50;;;;;;;;;;6095844;23;20170;-92
2021/12/27 09:28:35;;;;;;;65.47;22.30;;;;;;;;;;6093608;23;20245;-92
2021/12/27 09:31:40;;;;;;;79.57;33.22;;;;;;;;;;6094209;23;20403;-92
2021/12/27 09:34:46;;;;;;;68.47;23.43;;;;;;;;;;6097964;23;20193;-89
2021/12/27 09:37:52;;;;;;;62.07;21.27;;;;;;;;;;6097760;23;20174;-90
2021/12/27 09:40:58;;;;;;;67.30;22.70;;;;;;;;;;6094762;23;20242;-90
2021/12/27 09:44:04;;;;;;;71.60;22.57;;;;;;;;;;6095380;23;20173;-92
2021/12/27 09:47:10;;;;;;;90.07;27.97;;;;;;;;;;6096404;23;20214;-92
2021/12/27 09:50:18;;;;;;;91.03;29.63;;;;;;;;;;6095626;23;20198;-91
2021/12/27 09:53:25;;;;;;;71.17;22.67;;;;;;;;;;6095084;23;20170;-91
2021/12/27 09:56:39;;;;;;;64.63;20.90;;;;;;;;;;6095443;23;20186;-91
2021/12/27 09:59:45;;;;;;;70.07;22.27;;;;;;;;;;6095245;23;20241;-91
2021/12/27 10:02:53;;;;;;;61.43;21.63;;;;;;;;;;6098776;23;20202;-89
2021/12/27 10:06:09;;;;;;;68.77;22.10;;;;;;;;;;6096821;23;20169;-90
2021/12/27 10:09:16;;;;;;;62.80;21.90;;;;;;;;;;6095101;23;20182;-91
2021/12/27 10:12:22;;;;;;;74.13;22.77;;;;;;;;;;6093588;23;20166;-90
2021/12/27 10:15:35;;;;;;;68.90;22.80;;;;;;;;;;6093901;23;20246;-91
2021/12/27 10:18:43;;;;;;;70.20;21.33;;;;;;;;;;6097902;23;20175;-91
2021/12/27 10:25:16;;;;;;;73.33;23.27;;;;;;;;;;6094183;23;20225;-89
2021/12/27 10:28:26;;;;;;;71.50;22.80;;;;;;;;;;6093540;23;20181;-89
2021/12/27 10:31:31;;;;;;;70.30;22.30;;;;;;;;;;6094196;23;20157;-90
2021/12/27 10:34:37;;;;;;;65.67;22.10;;;;;;;;;;6094556;23;20193;-90
2021/12/27 10:37:46;;;;;;;63.60;22.80;;;;;;;;;;6094739;23;20174;-89
2021/12/27 10:40:55;;;;;;;65.10;22.57;;;;;;;;;;6097544;23;20170;-92
2021/12/27 10:44:01;;;;;;;65.77;21.40;;;;;;;;;;6095615;23;20287;-87
2021/12/27 10:47:23;;;;;;;56.87;18.47;;;;;;;;;;6094347;23;20157;-91
2021/12/27 10:50:30;;;;;;;70.80;23.83;;;;;;;;;;6095746;23;20203;-90
2021/12/27 10:53:45;;;;;;;67.87;21.47;;;;;;;;;;6093314;23;20694;-91
2021/12/27 10:56:54;;;;;;;64.30;21.80;;;;;;;;;;6097290;23;20173;-90
2021/12/27 11:00:14;;;;;;;68.70;22.40;;;;;;;;;;6093250;23;20167;-90
2021/12/27 11:03:24;;;;;;;71.07;23.07;;;;;;;;;;6095243;23;20173;-92
2021/12/27 11:06:33;;;;;;;69.00;22.03;;;;;;;;;;6095432;23;20541;-91
2021/12/27 11:09:38;;;;;;;68.27;23.40;;;;;;;;;;6096749;23;20224;-90
2021/12/27 11:12:44;;;;;;;65.77;23.57;;;;;;;;;;6099353;23;20157;-90
2021/12/27 11:15:56;;;;;;;67.17;22.17;;;;;;;;;;6096215;23;20206;-92
2021/12/27 11:19:01;;;;;;;61.57;21.47;;;;;;;;;;6094176;23;20158;-90
2021/12/27 11:22:06;;;;;;;65.20;21.50;;;;;;;;;;6093978;23;20222;-92
2021/12/27 11:25:21;;;;;;;65.77;21.53;;;;;;;;;;6096375;23;20229;-93
2021/12/27 11:28:29;;;;;;;72.03;21.30;;;;;;;;;;6095664;23;20193;-92
2021/12/27 11:31:35;;;;;;;56.17;20.80;;;;;;;;;;6097102;23;20202;-89
2021/12/27 11:34:54;;;;;;;64.13;21.83;;;;;;;;;;6098039;23;20202;-91
2021/12/27 11:38:01;;;;;;;59.73;20.70;;;;;;;;;;6099487;23;20290;-91
2021/12/27 11:41:07;;;;;;;71.67;22.97;;;;;;;;;;6098150;23;20505;-89
2021/12/27 11:44:17;;;;;;;69.80;22.20;;;;;;;;;;6097047;23;20181;-89
2021/12/27 11:47:24;;;;;;;72.40;22.90;;;;;;;;;;6097009;23;20160;-90
2021/12/27 11:50:31;;;;;;;64.90;21.87;;;;;;;;;;6100696;23;20178;-90
2021/12/27 11:53:38;;;;;;;67.00;22.20;;;;;;;;;;6100414;23;20173;-91
2021/12/27 11:56:48;;;;;;;74.50;24.13;;;;;;;;;;6101439;23;20200;-92
2021/12/27 11:59:54;;;;;;;68.73;22.03;;;;;;;;;;6099739;23;20169;-91
2021/12/27 12:03:10;;;;;;;63.07;21.97;;;;;;;;;;6101910;23;20181;-91
2021/12/27 12:06:34;;;;;;;69.77;22.70;;;;;;;;;;6101039;23;20154;-90
2021/12/27 12:09:46;;;;;;;66.47;21.30;;;;;;;;;;6098069;23;20221;-91
2021/12/27 12:13:10;;;;;;;67.63;22.93;;;;;;;;;;6100152;23;20223;-90
2021/12/27 12:16:18;;;;;;;73.20;21.97;;;;;;;;;;6097062;23;20218;-92
2021/12/27 12:19:41;;;;;;;72.03;21.90;;;;;;;;;;6097360;23;20490;-91
2021/12/27 12:22:48;;;;;;;65.50;22.80;;;;;;;;;;6098030;23;20170;-92
2021/12/27 12:25:59;;;;;;;76.40;22.37;;;;;;;;;;6098630;23;20174;-92
2021/12/27 12:29:04;;;;;;;66.53;22.60;;;;;;;;;;6098120;23;20193;-91
2021/12/27 12:32:12;;;;;;;74.10;23.73;;;;;;;;;;6099646;23;20326;-90
2021/12/27 12:35:31;;;;;;;74.97;23.63;;;;;;;;;;6098451;23;20202;-91
2021/12/27 12:38:38;;;;;;;74.93;24.90;;;;;;;;;;6098643;23;20170;-90
2021/12/27 12:41:44;;;;;;;82.23;25.50;;;;;;;;;;6098087;23;20162;-90
2021/12/27 12:44:51;;;;;;;81.63;24.70;;;;;;;;;;6097444;23;20182;-90
2021/12/27 12:47:58;;;;;;;75.60;24.07;;;;;;;;;;6096140;23;20218;-90
2021/12/27 12:51:03;;;;;;;78.57;25.97;;;;;;;;;;6092764;23;20173;-93
2021/12/27 12:54:10;;;;;;;83.63;24.53;;;;;;;;;;6095368;23;20166;-91
2021/12/27 12:57:18;;;;;;;81.97;24.83;;;;;;;;;;6095368;23;20202;-90
2021/12/27 13:00:24;;;;;;;80.80;26.33;;;;;;;;;;6094509;23;20174;-91
2021/12/27 13:03:31;;;;;;;77.53;25.60;;;;;;;;;;6095015;23;20174;-92
2021/12/27 13:06:51;;;;;;;82.47;25.27;;;;;;;;;;6094309;23;20496;-92
2021/12/27 13:09:56;;;;;;;82.97;25.33;;;;;;;;;;6095636;23;20610;-92
2021/12/27 13:17:26;;;;;;;77.97;26.27;;;;;;;;;;6113626;23;20210;-92
2021/12/27 13:20:34;;;;;;;86.20;28.23;;;;;;;;;;6095903;23;20166;-92
2021/12/27 13:23:41;;;;;;;88.77;27.37;;;;;;;;;;6097933;23;20170;-92
2021/12/27 13:26:46;;;;;;;86.27;26.83;;;;;;;;;;6095036;23;20246;-92
2021/12/27 13:30:03;;;;;;;80.30;26.70;;;;;;;;;;6094329;23;20209;-92
2021/12/27 13:33:09;;;;;;;86.43;25.63;;;;;;;;;;6094304;23;20281;-92
2021/12/27 13:36:16;;;;;;;87.20;26.00;;;;;;;;;;6095749;23;20199;-91
2021/12/27 13:39:25;;;;;;;80.33;26.70;;;;;;;;;;6093225;23;20178;-91
2021/12/27 13:42:30;;;;;;;92.07;27.37;;;;;;;;;;6096850;23;20173;-92
2021/12/27 13:45:42;;;;;;;105.53;29.53;;;;;;;;;;6097458;23;20219;-92
2021/12/27 13:48:54;;;;;;;79.50;26.50;;;;;;;;;;6098653;23;20194;-92
2021/12/27 13:52:03;;;;;;;79.43;26.50;;;;;;;;;;6097176;23;20610;-93
2021/12/27 13:55:09;;;;;;;91.03;27.40;;;;;;;;;;6098789;23;20170;-91
2021/12/27 13:58:20;;;;;;;89.00;28.10;;;;;;;;;;6096618;23;20150;-93
2021/12/27 14:01:25;;;;;;;84.47;25.93;;;;;;;;;;6098062;23;20459;-92
2021/12/27 14:04:30;;;;;;;80.80;27.27;;;;;;;;;;6099107;23;20223;-92
2021/12/27 14:07:41;;;;;;;78.73;25.37;;;;;;;;;;6096448;23;20174;-91
2021/12/27 14:11:01;;;;;;;88.23;27.17;;;;;;;;;;6098436;23;20177;-92
2021/12/27 14:18:24;;;;;;;90.20;25.47;;;;;;;;;;6114484;23;20173;-91
2021/12/27 14:21:29;;;;;;;83.47;26.27;;;;;;;;;;6097103;23;20289;-90
2021/12/27 14:24:38;;;;;;;98.10;28.77;;;;;;;;;;6094114;23;20541;-93
2021/12/27 14:27:45;;;;;;;74.17;23.80;;;;;;;;;;6098539;23;20182;-92
2021/12/27 14:30:52;;;;;;;82.30;25.10;;;;;;;;;;6099338;23;20169;-90
2021/12/27 14:33:57;;;;;;;82.20;27.20;;;;;;;;;;6099426;23;20185;-91
2021/12/27 14:37:05;;;;;;;80.80;25.03;;;;;;;;;;6098625;23;20197;-91
2021/12/27 14:40:12;;;;;;;87.27;24.83;;;;;;;;;;6096460;23;20178;-91
2021/12/27 14:43:18;;;;;;;76.40;24.00;;;;;;;;;;6096455;23;20157;-90
2021/12/27 14:46:24;;;;;;;84.07;24.57;;;;;;;;;;6097135;23;20206;-92
2021/12/27 14:49:30;;;;;;;75.50;25.13;;;;;;;;;;6098506;23;20221;-91
2021/12/27 14:52:36;;;;;;;88.30;26.77;;;;;;;;;;6097010;23;20485;-91
2021/12/27 14:55:44;;;;;;;86.30;25.60;;;;;;;;;;6095168;23;20590;-91
2021/12/27 14:58:49;;;;;;;86.93;26.43;;;;;;;;;;6095690;23;20174;-90
2021/12/27 15:01:56;;;;;;;103.63;29.53;;;;;;;;;;6097636;23;20170;-91
2021/12/27 15:05:02;;;;;;;92.13;26.27;;;;;;;;;;6099124;23;20182;-91
2021/12/27 15:08:07;;;;;;;88.93;25.33;;;;;;;;;;6101013;23;20169;-91
2021/12/27 15:11:14;;;;;;;88.10;24.97;;;;;;;;;;6097472;23;20193;-91
2021/12/27 15:14:21;;;;;;;86.97;26.33;;;;;;;;;;6099114;23;20221;-91
2021/12/27 15:17:28;;;;;;;86.70;27.30;;;;;;;;;;6100070;23;20193;-91
2021/12/27 15:20:34;;;;;;;79.43;25.43;;;;;;;;;;6097868;23;20169;-91
2021/12/27 15:23:40;;;;;;;93.43;27.00;;;;;;;;;;6099830;23;20157;-91
2021/12/27 15:26:51;;;;;;;91.87;27.87;;;;;;;;;;6096209;23;20174;-90
2021/12/27 15:30:11;;;;;;;91.33;26.27;;;;;;;;;;6103793;23;20188;-91
2021/12/27 15:33:17;;;;;;;83.57;25.80;;;;;;;;;;6101022;23;20174;-92
2021/12/27 15:36:23;;;;;;;82.57;24.53;;;;;;;;;;6101703;23;20201;-89
2021/12/27 15:39:30;;;;;;;86.60;26.40;;;;;;;;;;6100581;23;20174;-91
2021/12/27 15:42:42;;;;;;;89.27;28.07;;;;;;;;;;6101269;23;20149;-93
2021/12/27 15:45:48;;;;;;;98.47;30.50;;;;;;;;;;6100322;23;20170;-89
2021/12/27 15:48:54;;;;;;;95.97;28.80;;;;;;;;;;6099360;23;20173;-88
2021/12/27 15:52:01;;;;;;;93.80;28.03;;;;;;;;;;6119060;23;20170;-90
2021/12/27 15:55:07;;;;;;;103.50;29.20;;;;;;;;;;6100915;23;20162;-91
2021/12/27 15:58:16;;;;;;;104.03;29.80;;;;;;;;;;6101014;23;20198;-92
2021/12/27 16:01:22;;;;;;;88.27;27.23;;;;;;;;;;6099881;23;20157;-91
2021/12/27 16:04:27;;;;;;;84.57;25.50;;;;;;;;;;6099306;23;20174;-90
2021/12/27 16:07:33;;;;;;;92.13;27.87;;;;;;;;;;6099715;23;20161;-91
2021/12/27 16:10:42;;;;;;;89.00;28.20;;;;;;;;;;6099468;23;20174;-92
2021/12/27 16:13:49;;;;;;;87.40;26.30;;;;;;;;;;6100156;23;20179;-91
2021/12/27 16:16:57;;;;;;;88.73;27.17;;;;;;;;;;6098493;23;20259;-91
2021/12/27 16:20:04;;;;;;;88.63;27.80;;;;;;;;;;6097272;23;20216;-92
2021/12/27 16:23:10;;;;;;;98.30;29.17;;;;;;;;;;6096729;23;20175;-90
2021/12/27 16:26:19;;;;;;;93.30;28.33;;;;;;;;;;6097078;23;20162;-92
2021/12/27 16:29:25;;;;;;;87.67;26.90;;;;;;;;;;6099179;23;20283;-91
2021/12/27 16:32:30;;;;;;;88.33;26.97;;;;;;;;;;6098223;23;20241;-93
2021/12/27 16:35:36;;;;;;;95.20;27.73;;;;;;;;;;6099530;23;20169;-93
2021/12/27 16:38:42;;;;;;;96.53;28.27;;;;;;;;;;6096990;23;20727;-91
2021/12/27 16:41:48;;;;;;;89.33;26.83;;;;;;;;;;6097856;23;20154;-91
2021/12/27 16:44:56;;;;;;;88.57;27.03;;;;;;;;;;6099384;23;20158;-92
2021/12/27 16:48:02;;;;;;;86.23;26.67;;;;;;;;;;6097418;23;20237;-90
2021/12/27 16:51:09;;;;;;;87.90;26.63;;;;;;;;;;6100947;23;20263;-90
2021/12/27 16:54:15;;;;;;;85.23;26.43;;;;;;;;;;6097502;23;20170;-91
2021/12/27 16:57:20;;;;;;;98.77;29.17;;;;;;;;;;6095460;23;20210;-93
2021/12/27 17:00:30;;;;;;;89.77;29.07;;;;;;;;;;6097810;23;20175;-91
2021/12/27 22:55:09;;;;;;;57.97;18.87;;;;;;;;;;6172582;23;20247;-93
2021/12/27 22:58:14;;;;;;;64.37;20.53;;;;;;;;;;6187666;23;20516;-92
2021/12/27 23:01:19;;;;;;;58.80;18.93;;;;;;;;;;6188673;23;20167;-93
2021/12/27 23:04:25;;;;;;;75.07;23.20;;;;;;;;;;6187134;23;20172;-92
2021/12/27 23:07:34;;;;;;;59.17;18.60;;;;;;;;;;6188211;23;20166;-93
2021/12/27 23:10:43;;;;;;;61.30;19.93;;;;;;;;;;6187501;23;20212;-93
2021/12/27 23:13:49;;;;;;;70.80;21.70;;;;;;;;;;6187165;23;20180;-93
2021/12/27 23:16:54;;;;;;;58.70;18.30;;;;;;;;;;6188252;23;20183;-94
2021/12/27 23:20:00;;;;;;;58.83;18.30;;;;;;;;;;6187974;23;20208;-92
2021/12/27 23:23:06;;;;;;;67.87;19.87;;;;;;;;;;6189427;23;20207;-91
2021/12/27 23:26:14;;;;;;;78.03;21.97;;;;;;;;;;6189951;23;20176;-93
2021/12/27 23:29:20;;;;;;;79.10;24.40;;;;;;;;;;6189868;23;20203;-94
2021/12/27 23:32:33;;;;;;;76.20;24.53;;;;;;;;;;6190793;23;20160;-92
2021/12/27 23:35:42;;;;;;;81.57;23.57;;;;;;;;;;6189958;23;20172;-91
2021/12/27 23:38:49;;;;;;;81.03;25.33;;;;;;;;;;6189249;23;20195;-92
2021/12/27 23:41:58;;;;;;;83.83;23.17;;;;;;;;;;6191594;23;20167;-93
2021/12/27 23:45:06;;;;;;;74.37;24.33;;;;;;;;;;6190967;23;20164;-93
2021/12/27 23:48:13;;;;;;;74.87;24.17;;;;;;;;;;6191116;23;20159;-93
2021/12/27 23:51:18;;;;;;;77.77;24.57;;;;;;;;;;6190535;23;20216;-93
2021/12/27 23:54:26;;;;;;;82.23;24.93;;;;;;;;;;6190318;23;20175;-92
